sensor_id;sensor_type;location;lat;lon;timestamp;P1;P2;P0
47711;PMS7003;57457;51.634;5.886;2023-12-14T00:09:05;18.01;17.67;8.84
47711;PMS7003;57457;51.634;5.886;2023-12-14T00:22:24;16.69;17.99;8.62
47711;PMS7003;57457;51.634;5.886;2023-12-14T00:35:44;17.65;18.54;8.4
47711;PMS7003;57457;51.634;5.886;2023-12-14T00:49:03;19.57;19.85;9.71
47711;PMS7003;57457;51.634;5.886;2023-12-14T01:02:23;21.85;20.83;9.49
47711;PMS7003;57457;51.634;5.886;2023-12-14T01:15:43;21.37;20.72;9.27
47711;PMS7003;57457;51.634;5.886;2023-12-14T01:29:02;22.69;20.39;9.82
47711;PMS7003;57457;51.634;5.886;2023-12-14T01:42:22;20.29;20.17;9.27
47711;PMS7003;57457;51.634;5.886;2023-12-14T01:55:41;21.49;21.05;9.93
47711;PMS7003;57457;51.634;5.886;2023-12-14T02:09:01;22.81;20.83;9.71
47711;PMS7003;57457;51.634;5.886;2023-12-14T02:22:21;23.17;21.48;10.04
47711;PMS7003;57457;51.634;5.886;2023-12-14T02:35:40;21.25;20.83;9.49
47711;PMS7003;57457;51.634;5.886;2023-12-14T02:49:00;23.17;20.83;10.26
47711;PMS7003;57457;51.634;5.886;2023-12-14T03:02:20;21.61;21.16;10.36
47711;PMS7003;57457;51.634;5.886;2023-12-14T03:15:39;21.73;21.05;10.26
47711;PMS7003;57457;51.634;5.886;2023-12-14T03:28:59;22.81;21.81;10.58
47711;PMS7003;57457;51.634;5.886;2023-12-14T03:42:19;21.37;20.72;9.82
47711;PMS7003;57457;51.634;5.886;2023-12-14T03:55:38;19.69;20.07;9.71
47711;PMS7003;57457;51.634;5.886;2023-12-14T04:08:58;20.05;19.85;9.82
47711;PMS7003;57457;51.634;5.886;2023-12-14T04:22:17;22.81;20.83;9.17
47711;PMS7003;57457;51.634;5.886;2023-12-14T04:35:37;22.81;21.26;10.15
47711;PMS7003;57457;51.634;5.886;2023-12-14T04:48:57;21.01;20.83;10.15
47711;PMS7003;57457;51.634;5.886;2023-12-14T05:02:16;21.25;20.61;9.71
47711;PMS7003;57457;51.634;5.886;2023-12-14T05:15:36;21.49;21.05;10.36
47711;PMS7003;57457;51.634;5.886;2023-12-14T05:28:56;19.21;19.74;10.26
47711;PMS7003;57457;51.634;5.886;2023-12-14T05:42:15;22.45;20.83;9.6
47711;PMS7003;57457;51.634;5.886;2023-12-14T05:55:35;19.45;19.74;9.06
47711;PMS7003;57457;51.634;5.886;2023-12-14T06:08:54;18.49;19.41;9.6
47711;PMS7003;57457;51.634;5.886;2023-12-14T06:22:14;18.49;19.52;9.49
47711;PMS7003;57457;51.634;5.886;2023-12-14T06:35:34;22.57;21.59;10.15
47711;PMS7003;57457;51.634;5.886;2023-12-14T06:48:53;19.81;20.07;9.6
47711;PMS7003;57457;51.634;5.886;2023-12-14T07:02:13;21.13;20.83;10.04
47711;PMS7003;57457;51.634;5.886;2023-12-14T07:15:33;20.05;20.28;9.71
47711;PMS7003;57457;51.634;5.886;2023-12-14T07:28:52;22.93;20.61;9.6
47711;PMS7003;57457;51.634;5.886;2023-12-14T07:42:12;18.97;19.63;9.27
47711;PMS7003;57457;51.634;5.886;2023-12-14T07:55:31;16.57;18.1;8.18
47711;PMS7003;57457;51.634;5.886;2023-12-14T08:08:51;15.01;16.8;7.97
47711;PMS7003;57457;51.634;5.886;2023-12-14T08:22:11;15.49;17.23;7.31
47711;PMS7003;57457;51.634;5.886;2023-12-14T08:35:30;13.57;15.6;7.31
47711;PMS7003;57457;51.634;5.886;2023-12-14T08:48:50;13.57;15.38;7.31
47711;PMS7003;57457;51.634;5.886;2023-12-14T09:02:09;15.01;16.9;7.09
47711;PMS7003;57457;51.634;5.886;2023-12-14T09:15:29;16.09;16.69;7.42
47711;PMS7003;57457;51.634;5.886;2023-12-14T09:28:49;13.93;15.81;6.99
47711;PMS7003;57457;51.634;5.886;2023-12-14T09:42:08;11.41;13.42;6.66
47711;PMS7003;57457;51.634;5.886;2023-12-14T09:55:28;12.97;15.05;6.55
47711;PMS7003;57457;51.634;5.886;2023-12-14T10:08:47;11.17;13.2;6.66
47711;PMS7003;57457;51.634;5.886;2023-12-14T10:22:07;12.37;14.4;6.88
47711;PMS7003;57457;51.634;5.886;2023-12-14T10:35:27;12.01;14.07;6.33
47711;PMS7003;57457;51.634;5.886;2023-12-14T10:48:46;12.13;14.18;6.55
47711;PMS7003;57457;51.634;5.886;2023-12-14T11:02:06;10.21;12.44;5.79
47711;PMS7003;57457;51.634;5.886;2023-12-14T11:15:25;14.41;14.18;6.66
47711;PMS7003;57457;51.634;5.886;2023-12-14T11:28:45;11.65;13.85;6.33
47711;PMS7003;57457;51.634;5.886;2023-12-14T11:42:05;12.25;14.07;6.88
47711;PMS7003;57457;51.634;5.886;2023-12-14T11:55:24;14.53;14.62;6.55
47711;PMS7003;57457;51.634;5.886;2023-12-14T12:08:44;13.69;15.6;7.64
47711;PMS7003;57457;51.634;5.886;2023-12-14T12:22:03;13.69;15.49;7.53
47711;PMS7003;57457;51.634;5.886;2023-12-14T12:35:23;15.01;16.69;7.86
47711;PMS7003;57457;51.634;5.886;2023-12-14T12:48:43;15.85;16.8;7.31
47711;PMS7003;57457;51.634;5.886;2023-12-14T13:02:02;18.13;17.45;8.18
47711;PMS7003;57457;51.634;5.886;2023-12-14T13:15:22;16.33;17.78;8.73
47711;PMS7003;57457;51.634;5.886;2023-12-14T13:28:41;16.45;17.01;8.4
47711;PMS7003;57457;51.634;5.886;2023-12-14T13:42:01;13.33;15.38;7.75
47711;PMS7003;57457;51.634;5.886;2023-12-14T13:55:21;13.21;15.16;7.86
47711;PMS7003;57457;51.634;5.886;2023-12-14T14:22:00;12.01;13.85;7.75
47711;PMS7003;57457;51.634;5.886;2023-12-14T14:35:20;12.01;13.85;7.2
47711;PMS7003;57457;51.634;5.886;2023-12-14T14:48:39;12.97;14.83;7.86
47711;PMS7003;57457;51.634;5.886;2023-12-14T15:01:59;14.53;16.03;8.51
47711;PMS7003;57457;51.634;5.886;2023-12-14T15:15:19;16.21;16.25;8.18
47711;PMS7003;57457;51.634;5.886;2023-12-14T15:28:38;13.33;15.38;7.42
47711;PMS7003;57457;51.634;5.886;2023-12-14T15:41:58;14.53;16.25;8.08
47711;PMS7003;57457;51.634;5.886;2023-12-14T15:55:17;19.45;18.43;8.84
47711;PMS7003;57457;51.634;5.886;2023-12-14T16:08:37;34.46;28.35;15.27
47711;PMS7003;57457;51.634;5.886;2023-12-14T16:21:57;17.89;18.87;9.82
47711;PMS7003;57457;51.634;5.886;2023-12-14T16:35:16;18.73;19.52;10.04
47711;PMS7003;57457;51.634;5.886;2023-12-14T16:48:36;24.73;22.68;11.78
47711;PMS7003;57457;51.634;5.886;2023-12-14T17:01:55;28.45;23.77;12.65
47711;PMS7003;57457;51.634;5.886;2023-12-14T17:15:15;28.45;25.19;13.74
47711;PMS7003;57457;51.634;5.886;2023-12-14T17:28:35;34.94;27.7;15.05
47711;PMS7003;57457;51.634;5.886;2023-12-14T17:41:54;25.93;22.35;11.45
47711;PMS7003;57457;51.634;5.886;2023-12-14T17:55:14;24.37;22.46;11.89
47711;PMS7003;57457;51.634;5.886;2023-12-14T18:08:34;20.89;20.83;10.69
47711;PMS7003;57457;51.634;5.886;2023-12-14T18:21:53;22.93;20.5;10.26
47711;PMS7003;57457;51.634;5.886;2023-12-14T18:35:13;27.13;24.53;12.87
47711;PMS7003;57457;51.634;5.886;2023-12-14T18:48:32;22.09;20.28;9.71
47711;PMS7003;57457;51.634;5.886;2023-12-14T19:01:52;24.85;21.48;10.26
47711;PMS7003;57457;51.634;5.886;2023-12-14T19:15:12;23.77;22.03;10.8
47711;PMS7003;57457;51.634;5.886;2023-12-14T19:28:31;25.45;23.01;12.11
47711;PMS7003;57457;51.634;5.886;2023-12-14T19:41:51;24.01;22.25;12.0
47711;PMS7003;57457;51.634;5.886;2023-12-14T19:55:10;26.05;22.9;11.24
47711;PMS7003;57457;51.634;5.886;2023-12-14T20:08:30;25.93;22.79;11.56
47711;PMS7003;57457;51.634;5.886;2023-12-14T20:21:50;25.57;22.25;12.0
47711;PMS7003;57457;51.634;5.886;2023-12-14T20:35:09;24.25;22.03;11.67
47711;PMS7003;57457;51.634;5.886;2023-12-14T20:48:29;23.05;21.81;11.78
47711;PMS7003;57457;51.634;5.886;2023-12-14T21:15:08;22.81;21.26;11.45
47711;PMS7003;57457;51.634;5.886;2023-12-14T21:28:28;22.81;21.48;11.35
47711;PMS7003;57457;51.634;5.886;2023-12-14T21:41:47;22.21;21.05;11.24
47711;PMS7003;57457;51.634;5.886;2023-12-14T21:55:07;22.57;21.37;11.67
47711;PMS7003;57457;51.634;5.886;2023-12-14T22:08:27;19.93;20.17;10.58
47711;PMS7003;57457;51.634;5.886;2023-12-14T22:21:46;20.65;19.19;10.47
47711;PMS7003;57457;51.634;5.886;2023-12-14T22:35:06;18.13;18.54;10.47
47711;PMS7003;57457;51.634;5.886;2023-12-14T22:48:25;18.25;19.3;10.47
47711;PMS7003;57457;51.634;5.886;2023-12-14T23:15:05;20.41;20.28;11.24
47711;PMS7003;57457;51.634;5.886;2023-12-14T23:28:24;22.33;20.39;11.67
47711;PMS7003;57457;51.634;5.886;2023-12-14T23:41:44;27.49;21.16;11.78
47711;PMS7003;57457;51.634;5.886;2023-12-14T23:55:03;23.17;21.05;11.78
